createdAt,value
2023-01-18T00:01:02.853Z,2.37
2023-01-18T00:02:04.594Z,2.00
2023-01-18T00:03:08.877Z,1.93
2023-01-18T00:04:10.573Z,1.93
2023-01-18T00:05:14.875Z,2.27
2023-01-18T00:06:17.823Z,1.70
2023-01-18T00:07:20.616Z,2.30
2023-01-18T00:08:22.291Z,2.40
2023-01-18T00:09:25.034Z,1.93
2023-01-18T00:10:26.888Z,1.87
2023-01-18T00:11:29.588Z,1.93
2023-01-18T00:12:33.305Z,1.67
2023-01-18T00:13:36.527Z,2.40
2023-01-18T00:14:38.247Z,1.70
2023-01-18T00:15:40.955Z,2.00
2023-01-18T00:16:42.652Z,2.37
2023-01-18T00:17:52.543Z,2.03
2023-01-18T00:18:55.597Z,1.77
2023-01-18T00:19:58.397Z,2.13
2023-01-18T00:21:01.963Z,1.60
2023-01-18T00:22:04.754Z,2.17
2023-01-18T00:23:06.491Z,2.10
2023-01-18T00:24:15.038Z,1.60
2023-01-18T00:25:17.275Z,1.83
2023-01-18T00:26:20.339Z,1.93
2023-01-18T00:27:22.054Z,2.30
2023-01-18T00:28:24.794Z,1.77
2023-01-18T00:29:26.448Z,2.10
2023-01-18T00:30:30.390Z,1.70
2023-01-18T00:31:32.178Z,1.90
2023-01-18T00:32:35.319Z,1.70
2023-01-18T00:33:37.349Z,1.77
2023-01-18T00:34:40.316Z,2.00
2023-01-18T00:35:41.995Z,1.87
2023-01-18T00:36:46.159Z,1.97
2023-01-18T00:37:48.096Z,2.00
2023-01-18T00:38:52.293Z,2.07
2023-01-18T00:39:54.036Z,1.90
2023-01-18T00:40:56.912Z,1.70
2023-01-18T00:42:17.163Z,1.80
2023-01-18T00:43:37.542Z,2.00
2023-01-18T00:44:39.312Z,1.80
2023-01-18T00:45:42.086Z,2.23
2023-01-18T00:46:43.846Z,1.77
2023-01-18T00:47:46.620Z,2.10
2023-01-18T00:48:50.131Z,2.00
2023-01-18T00:49:52.814Z,1.80
2023-01-18T00:50:54.671Z,2.03
2023-01-18T00:51:58.949Z,2.07
2023-01-18T00:53:00.816Z,2.20
2023-01-18T00:54:03.553Z,2.50
2023-01-18T00:55:06.894Z,2.23
2023-01-18T00:56:10.984Z,2.00
2023-01-18T00:57:13.466Z,2.30
2023-01-18T00:58:16.152Z,1.90
2023-01-18T00:59:17.790Z,2.40
2023-01-18T01:00:20.506Z,2.20
2023-01-18T01:01:23.217Z,1.83
2023-01-18T01:02:25.023Z,2.00
2023-01-18T01:03:27.799Z,2.03
2023-01-18T01:04:47.888Z,2.03
2023-01-18T01:06:08.374Z,2.50
2023-01-18T01:07:11.667Z,1.80
2023-01-18T01:08:17.776Z,2.20
2023-01-18T01:09:21.436Z,2.00
2023-01-18T01:10:24.085Z,2.30
2023-01-18T01:11:25.835Z,2.10
2023-01-18T01:12:46.077Z,1.97
2023-01-18T01:14:06.418Z,1.93
2023-01-18T01:15:28.323Z,2.07
2023-01-18T01:16:48.844Z,1.80
2023-01-18T01:18:08.941Z,2.20
2023-01-18T01:19:29.406Z,2.03
2023-01-18T01:20:49.764Z,1.67
2023-01-18T01:22:10.013Z,1.70
2023-01-18T01:23:33.161Z,1.80
2023-01-18T01:24:54.119Z,2.23
2023-01-18T01:26:08.949Z,2.07
2023-01-18T01:27:11.196Z,2.27
2023-01-18T01:28:13.845Z,1.93
2023-01-18T01:29:16.022Z,2.03
2023-01-18T01:30:19.021Z,1.83
2023-01-18T01:31:21.000Z,1.90
2023-01-18T01:32:23.763Z,1.80
2023-01-18T01:33:25.502Z,2.00
2023-01-18T01:34:29.677Z,2.00
2023-01-18T01:35:31.386Z,2.10
2023-01-18T01:36:34.402Z,1.80
2023-01-18T01:37:36.123Z,2.00
2023-01-18T01:38:41.358Z,1.70
2023-01-18T01:39:43.053Z,1.80
2023-01-18T01:40:45.748Z,1.93
2023-01-18T01:41:47.574Z,2.03
2023-01-18T01:42:50.292Z,2.10
2023-01-18T01:43:53.559Z,2.00
2023-01-18T01:44:56.369Z,2.33
2023-01-18T01:45:58.303Z,1.77
2023-01-18T01:47:03.995Z,1.60
2023-01-18T01:48:05.960Z,2.00
2023-01-18T01:49:13.167Z,1.40
2023-01-18T01:50:18.900Z,1.80
2023-01-18T01:51:21.655Z,2.07
2023-01-18T01:52:26.202Z,1.73
2023-01-18T01:53:28.977Z,1.63
2023-01-18T01:54:35.152Z,1.77
2023-01-18T01:55:39.021Z,1.87
2023-01-18T01:56:41.481Z,2.00
2023-01-18T01:57:45.800Z,1.57
2023-01-18T01:58:48.737Z,1.90
2023-01-18T01:59:54.456Z,1.70
2023-01-18T02:00:57.430Z,1.80
2023-01-18T02:01:59.534Z,1.90
2023-01-18T02:03:05.249Z,1.77
2023-01-18T02:04:07.079Z,1.50
2023-01-18T02:05:11.288Z,1.83
2023-01-18T02:06:19.250Z,1.73
2023-01-18T02:07:22.241Z,1.47
2023-01-18T02:08:25.143Z,1.60
2023-01-18T02:09:28.165Z,1.67
2023-01-18T02:10:33.521Z,2.10
2023-01-18T02:11:36.461Z,1.80
2023-01-18T02:12:39.715Z,1.67
2023-01-18T02:13:42.524Z,1.50
2023-01-18T02:14:44.270Z,1.70
2023-01-18T02:15:52.388Z,1.77
2023-01-18T02:17:07.779Z,1.67
2023-01-18T02:18:23.707Z,1.70
2023-01-18T02:19:44.952Z,1.53
2023-01-18T02:21:13.508Z,1.30
2023-01-18T02:22:26.232Z,1.50
2023-01-18T02:23:36.727Z,1.50
2023-01-18T02:25:11.721Z,1.70
2023-01-18T02:26:46.999Z,1.73
2023-01-18T02:27:51.599Z,1.47
2023-01-18T02:29:00.448Z,1.60
2023-01-18T02:30:12.852Z,1.40
2023-01-18T02:31:18.752Z,1.30
2023-01-18T02:32:25.697Z,1.80
2023-01-18T02:33:32.388Z,1.40
2023-01-18T02:34:40.399Z,1.83
2023-01-18T02:35:48.460Z,1.60
2023-01-18T02:36:56.898Z,1.53
2023-01-18T02:38:05.830Z,1.20
2023-01-18T02:39:13.536Z,1.77
2023-01-18T02:40:21.586Z,1.30
2023-01-18T02:41:50.781Z,2.10
2023-01-18T02:43:10.976Z,1.40
2023-01-18T02:44:34.249Z,1.60
2023-01-18T02:45:57.647Z,1.27
2023-01-18T02:47:01.237Z,1.67
2023-01-18T02:48:03.377Z,1.73
2023-01-18T02:49:08.846Z,1.57
2023-01-18T02:50:11.036Z,1.80
2023-01-18T02:51:13.784Z,1.17
2023-01-18T02:52:40.329Z,1.57
2023-01-18T02:53:45.328Z,1.27
2023-01-18T02:54:47.211Z,1.30
2023-01-18T02:55:53.007Z,1.50
2023-01-18T02:56:55.390Z,1.60
2023-01-18T02:58:02.143Z,1.90
2023-01-18T02:59:08.735Z,1.57
2023-01-18T03:00:17.475Z,1.73
2023-01-18T03:01:26.214Z,1.67
2023-01-18T03:02:29.499Z,1.37
2023-01-18T03:03:31.798Z,1.50
2023-01-18T03:04:38.002Z,2.30
2023-01-18T03:05:40.921Z,1.97
2023-01-18T03:06:46.689Z,1.80
2023-01-18T03:07:52.494Z,1.90
2023-01-18T03:08:55.964Z,1.90
2023-01-18T03:09:59.110Z,1.70
2023-01-18T03:11:03.510Z,1.70
2023-01-18T03:12:12.439Z,1.47
2023-01-18T03:13:18.031Z,1.50
2023-01-18T03:14:23.891Z,1.87
2023-01-18T03:15:31.500Z,1.73
2023-01-18T03:16:41.123Z,1.70
2023-01-18T03:17:45.462Z,1.80
2023-01-18T03:19:00.882Z,1.60
2023-01-18T03:20:09.762Z,2.03
2023-01-18T03:21:11.531Z,1.63
2023-01-18T03:22:14.437Z,1.97
2023-01-18T03:23:42.765Z,1.87
2023-01-18T03:24:44.857Z,2.10
2023-01-18T03:25:49.748Z,1.70
2023-01-18T03:26:53.914Z,1.80
2023-01-18T03:28:15.654Z,1.83
2023-01-18T03:29:37.404Z,1.87
2023-01-18T03:30:59.457Z,1.90
2023-01-18T03:32:22.570Z,2.07
2023-01-18T03:33:43.381Z,2.00
2023-01-18T03:34:51.213Z,1.80
2023-01-18T03:35:54.277Z,2.10
2023-01-18T03:36:59.801Z,2.10
2023-01-18T03:38:01.571Z,2.00
2023-01-18T03:39:07.135Z,1.83
2023-01-18T03:40:12.808Z,1.63
2023-01-18T03:41:16.429Z,1.97
2023-01-18T03:42:21.564Z,1.90
2023-01-18T03:43:24.140Z,1.87
2023-01-18T03:44:31.505Z,1.67
2023-01-18T03:45:34.204Z,1.70
2023-01-18T03:46:39.167Z,2.10
2023-01-18T03:47:40.855Z,1.70
2023-01-18T03:48:43.588Z,1.77
2023-01-18T03:49:45.536Z,1.90
2023-01-18T03:50:51.605Z,1.70
2023-01-18T03:52:08.802Z,1.70
2023-01-18T03:53:15.249Z,1.60
2023-01-18T03:54:20.676Z,1.77
2023-01-18T03:55:26.537Z,2.30
2023-01-18T03:56:32.476Z,1.70
2023-01-18T03:57:38.369Z,2.00
2023-01-18T03:58:42.203Z,2.20
2023-01-18T03:59:45.005Z,2.03
2023-01-18T04:00:46.872Z,2.10
2023-01-18T04:01:51.231Z,1.70
2023-01-18T04:02:53.044Z,2.03
2023-01-18T04:03:55.738Z,1.60
2023-01-18T04:04:58.401Z,2.03
2023-01-18T04:06:02.135Z,1.90
2023-01-18T04:07:04.144Z,1.50
2023-01-18T04:08:07.477Z,2.07
2023-01-18T04:09:09.457Z,2.10
2023-01-18T04:10:12.623Z,2.03
2023-01-18T04:11:14.340Z,1.77
2023-01-18T04:12:17.080Z,1.77
2023-01-18T04:13:18.778Z,1.83
2023-01-18T04:14:21.491Z,2.07
2023-01-18T04:15:23.566Z,1.67
2023-01-18T04:16:26.329Z,1.70
2023-01-18T04:17:29.653Z,1.63
2023-01-18T04:18:32.388Z,2.00
2023-01-18T04:19:34.067Z,1.97
2023-01-18T04:20:36.702Z,1.63
2023-01-18T04:21:38.569Z,1.83
2023-01-18T04:22:41.253Z,2.07
2023-01-18T04:23:43.005Z,1.60
2023-01-18T04:24:45.865Z,1.80
2023-01-18T04:25:49.965Z,1.97
2023-01-18T04:26:52.661Z,1.87
2023-01-18T04:27:54.391Z,1.70
2023-01-18T04:28:57.185Z,1.77
2023-01-18T04:29:58.886Z,2.10
2023-01-18T04:31:01.802Z,1.60
2023-01-18T04:32:05.566Z,1.80
2023-01-18T04:33:08.639Z,1.97
2023-01-18T04:34:11.291Z,2.20
2023-01-18T04:35:13.533Z,1.83
2023-01-18T04:36:16.225Z,1.87
2023-01-18T04:37:19.028Z,1.97
2023-01-18T04:38:21.102Z,2.07
2023-01-18T04:39:23.945Z,2.00
2023-01-18T04:40:25.778Z,1.70
2023-01-18T04:41:28.538Z,1.80
2023-01-18T04:42:30.590Z,1.93
2023-01-18T04:43:33.394Z,1.80
2023-01-18T04:44:35.101Z,1.90
2023-01-18T04:45:37.819Z,1.60
2023-01-18T04:46:39.593Z,2.20
2023-01-18T04:47:42.826Z,1.73
2023-01-18T04:48:50.545Z,2.13
2023-01-18T04:49:52.398Z,2.37
2023-01-18T04:50:55.159Z,1.70
2023-01-18T04:51:56.863Z,1.70
2023-01-18T04:53:00.087Z,1.90
2023-01-18T04:54:03.108Z,1.70
2023-01-18T04:55:05.657Z,1.60
2023-01-18T04:56:08.878Z,2.00
2023-01-18T04:57:10.573Z,1.60
2023-01-18T04:58:13.245Z,1.97
2023-01-18T04:59:15.750Z,2.00
2023-01-18T05:00:19.221Z,1.80
2023-01-18T05:01:21.900Z,1.83
2023-01-18T05:02:24.735Z,2.13
2023-01-18T05:03:26.509Z,2.00
2023-01-18T05:04:30.704Z,2.10
2023-01-18T05:05:32.496Z,1.93
2023-01-18T05:06:35.145Z,1.63
2023-01-18T05:07:36.836Z,2.03
2023-01-18T05:08:40.913Z,1.77
2023-01-18T05:09:42.643Z,1.83
2023-01-18T05:10:45.381Z,1.63
2023-01-18T05:11:47.279Z,1.97
2023-01-18T05:12:50.038Z,1.73
2023-01-18T05:13:51.757Z,1.63
2023-01-18T05:14:54.438Z,1.50
2023-01-18T05:15:56.664Z,1.80
2023-01-18T05:16:59.384Z,2.20
2023-01-18T05:18:01.700Z,2.10
2023-01-18T05:19:04.388Z,2.00
2023-01-18T05:20:10.260Z,1.80
2023-01-18T05:21:13.537Z,2.20
2023-01-18T05:22:15.677Z,1.70
2023-01-18T05:23:18.474Z,1.97
2023-01-18T05:24:20.155Z,2.30
2023-01-18T05:25:22.889Z,1.87
2023-01-18T05:26:24.823Z,1.63
2023-01-18T05:27:27.597Z,1.90
2023-01-18T05:28:29.254Z,1.90
2023-01-18T05:29:32.055Z,1.63
2023-01-18T05:30:35.148Z,2.17
2023-01-18T05:31:36.923Z,2.23
2023-01-18T05:32:39.927Z,1.80
2023-01-18T05:33:42.027Z,1.80
2023-01-18T05:34:44.763Z,1.73
2023-01-18T05:35:51.385Z,1.50
2023-01-18T05:36:54.070Z,1.90
2023-01-18T05:37:55.810Z,1.80
2023-01-18T05:38:58.508Z,1.93
2023-01-18T05:40:00.226Z,2.17
2023-01-18T05:41:03.198Z,1.90
2023-01-18T05:42:05.684Z,1.83
2023-01-18T05:43:08.364Z,1.80
2023-01-18T05:44:11.233Z,1.83
2023-01-18T05:45:13.907Z,1.97
2023-01-18T05:46:15.940Z,1.80
2023-01-18T05:47:18.637Z,1.93
2023-01-18T05:48:20.879Z,1.87
2023-01-18T05:49:23.552Z,2.57
2023-01-18T05:50:26.201Z,1.50
2023-01-18T05:51:30.917Z,1.93
2023-01-18T05:52:32.574Z,2.10
2023-01-18T05:53:35.323Z,1.40
2023-01-18T05:54:37.052Z,1.67
2023-01-18T05:55:39.718Z,1.50
2023-01-18T05:56:42.068Z,1.43
2023-01-18T05:57:46.024Z,1.70
2023-01-18T05:58:49.257Z,1.50
2023-01-18T05:59:52.073Z,1.50
2023-01-18T06:00:54.001Z,1.40
2023-01-18T06:01:56.925Z,1.30
2023-01-18T06:02:58.968Z,1.53
2023-01-18T06:04:02.020Z,1.40
2023-01-18T06:05:04.058Z,1.83
2023-01-18T06:06:07.246Z,1.30
2023-01-18T06:07:10.336Z,1.73
2023-01-18T06:08:13.032Z,1.60
2023-01-18T06:09:14.681Z,1.50
2023-01-18T06:10:17.889Z,1.73
2023-01-18T06:11:19.632Z,1.30
2023-01-18T06:12:22.359Z,1.33
2023-01-18T06:13:24.563Z,1.27
2023-01-18T06:14:27.382Z,1.70
2023-01-18T06:15:29.200Z,1.73
2023-01-18T06:16:32.018Z,1.57
2023-01-18T06:17:34.232Z,1.70
2023-01-18T06:18:38.389Z,1.40
2023-01-18T06:19:40.142Z,1.40
2023-01-18T06:20:42.907Z,1.47
2023-01-18T06:21:45.560Z,1.40
2023-01-18T06:22:48.704Z,1.50
2023-01-18T06:23:51.545Z,1.63
2023-01-18T06:24:54.281Z,1.37
2023-01-18T06:25:55.958Z,1.30
2023-01-18T06:26:59.324Z,1.30
2023-01-18T06:28:00.965Z,1.10
2023-01-18T06:29:04.359Z,1.27
2023-01-18T06:30:08.206Z,1.17
2023-01-18T06:31:11.484Z,1.03
2023-01-18T06:32:14.260Z,1.23
2023-01-18T06:33:15.978Z,2.30
2023-01-18T06:34:18.640Z,1.33
2023-01-18T06:35:20.918Z,1.07
2023-01-18T06:36:23.654Z,1.40
2023-01-18T06:37:25.793Z,1.40
2023-01-18T06:38:31.326Z,1.33
2023-01-18T06:39:33.013Z,1.23
2023-01-18T06:40:35.687Z,1.30
2023-01-18T06:41:37.587Z,1.60
2023-01-18T06:42:40.358Z,1.33
2023-01-18T06:43:44.253Z,1.17
2023-01-18T06:44:45.998Z,1.27
2023-01-18T06:45:53.410Z,1.13
2023-01-18T06:46:55.168Z,1.20
2023-01-18T06:47:57.886Z,1.20
2023-01-18T06:48:59.645Z,1.20
2023-01-18T06:50:02.581Z,1.20
2023-01-18T06:51:05.434Z,1.07
2023-01-18T06:52:07.093Z,1.00
2023-01-18T06:53:09.737Z,1.20
2023-01-18T06:54:14.787Z,1.47
2023-01-18T06:55:19.059Z,1.00
2023-01-18T06:56:21.810Z,1.20
2023-01-18T06:57:23.946Z,1.10
2023-01-18T06:58:27.588Z,1.57
2023-01-18T06:59:29.345Z,1.23
2023-01-18T07:00:32.052Z,1.30
2023-01-18T07:01:34.026Z,1.17
2023-01-18T07:02:37.543Z,1.30
2023-01-18T07:03:39.232Z,1.10
2023-01-18T07:04:44.178Z,1.10
2023-01-18T07:05:46.715Z,0.83
2023-01-18T07:06:49.587Z,1.23
2023-01-18T07:07:51.278Z,1.00
2023-01-18T07:08:53.950Z,1.30
2023-01-18T07:09:57.227Z,1.27
2023-01-18T07:11:00.478Z,1.13
2023-01-18T07:12:02.236Z,1.20
2023-01-18T07:13:05.692Z,1.10
2023-01-18T07:14:07.455Z,1.07
2023-01-18T07:15:21.108Z,1.27
2023-01-18T07:16:24.838Z,1.10
2023-01-18T07:17:26.514Z,1.40
2023-01-18T07:18:30.451Z,0.83
2023-01-18T07:19:33.224Z,1.40
2023-01-18T07:20:35.071Z,1.30
2023-01-18T07:21:37.928Z,1.00
2023-01-18T07:22:39.734Z,1.10
2023-01-18T07:23:43.222Z,1.00
2023-01-18T07:24:45.658Z,1.30
2023-01-18T07:25:49.798Z,1.03
2023-01-18T07:26:51.501Z,1.00
2023-01-18T07:27:55.825Z,1.10
2023-01-18T07:28:57.506Z,1.13
2023-01-18T07:30:00.549Z,1.10
2023-01-18T07:31:03.278Z,1.03
2023-01-18T07:32:06.296Z,1.03
2023-01-18T07:33:08.086Z,1.13
2023-01-18T07:34:11.373Z,1.07
2023-01-18T07:35:13.077Z,1.07
2023-01-18T07:36:15.822Z,0.93
2023-01-18T07:37:17.656Z,1.30
2023-01-18T07:38:20.911Z,0.80
2023-01-18T07:39:23.591Z,1.03
2023-01-18T07:40:25.288Z,0.77
2023-01-18T07:41:31.004Z,1.20
2023-01-18T07:42:32.870Z,0.80
2023-01-18T07:43:37.524Z,1.10
2023-01-18T07:44:42.357Z,1.00
2023-01-18T07:45:46.146Z,1.17
2023-01-18T07:46:49.018Z,0.90
2023-01-18T07:47:52.103Z,1.17
2023-01-18T07:48:54.955Z,1.17
2023-01-18T07:49:57.701Z,1.00
2023-01-18T07:51:00.829Z,0.90
2023-01-18T07:52:03.732Z,1.30
2023-01-18T07:53:08.509Z,1.07
2023-01-18T07:54:11.233Z,0.93
2023-01-18T07:55:13.017Z,0.80
2023-01-18T07:56:17.642Z,1.00
2023-01-18T07:57:21.738Z,0.83
2023-01-18T07:58:24.098Z,1.00
2023-01-18T07:59:27.899Z,1.00
2023-01-18T08:00:29.610Z,1.07
2023-01-18T08:01:32.723Z,1.20
2023-01-18T08:02:35.215Z,1.23
2023-01-18T08:03:38.642Z,1.20
2023-01-18T08:04:41.923Z,1.33
2023-01-18T08:05:44.210Z,1.00
2023-01-18T08:06:47.412Z,0.90
2023-01-18T08:07:49.896Z,1.07
2023-01-18T08:08:52.875Z,0.90
2023-01-18T08:09:54.608Z,0.90
2023-01-18T08:10:57.628Z,1.27
2023-01-18T08:12:00.408Z,1.20
2023-01-18T08:13:03.845Z,1.60
2023-01-18T08:14:06.545Z,0.80
2023-01-18T08:15:09.177Z,1.07
2023-01-18T08:16:12.944Z,0.77
2023-01-18T08:17:14.716Z,1.10
2023-01-18T08:18:17.479Z,0.90
2023-01-18T08:19:20.175Z,0.90
2023-01-18T08:20:22.199Z,0.97
2023-01-18T08:21:24.925Z,1.10
2023-01-18T08:22:26.752Z,0.90
2023-01-18T08:23:29.458Z,1.00
2023-01-18T08:24:32.285Z,0.97
2023-01-18T08:25:35.000Z,0.70
2023-01-18T08:26:36.854Z,0.80
2023-01-18T08:27:39.918Z,1.13
2023-01-18T08:28:44.775Z,1.00
2023-01-18T08:29:47.037Z,1.23
2023-01-18T08:30:49.972Z,1.27
2023-01-18T08:31:53.445Z,0.83
2023-01-18T08:32:57.791Z,0.87
2023-01-18T08:34:02.514Z,1.07
2023-01-18T08:35:06.312Z,1.17
2023-01-18T08:36:13.804Z,0.90
2023-01-18T08:37:17.309Z,1.00
2023-01-18T08:38:19.321Z,0.87
2023-01-18T08:39:22.319Z,1.00
2023-01-18T08:40:24.315Z,0.90
2023-01-18T08:41:30.069Z,1.33
2023-01-18T08:42:31.904Z,1.37
2023-01-18T08:43:35.201Z,1.00
2023-01-18T08:44:39.348Z,1.00
2023-01-18T08:45:41.123Z,1.27
2023-01-18T08:46:43.936Z,1.20
2023-01-18T08:47:46.810Z,1.00
2023-01-18T08:48:50.740Z,1.20
2023-01-18T08:49:53.532Z,1.07
2023-01-18T08:51:00.514Z,1.27
2023-01-18T08:52:02.202Z,1.20
2023-01-18T08:53:04.992Z,1.00
2023-01-18T08:54:07.256Z,1.17
2023-01-18T08:55:10.855Z,1.20
2023-01-18T08:56:13.834Z,1.20
2023-01-18T08:57:17.034Z,1.13
2023-01-18T08:58:19.756Z,1.20
2023-01-18T08:59:23.685Z,1.17
2023-01-18T09:00:29.931Z,1.17
2023-01-18T09:01:32.772Z,1.00
2023-01-18T09:02:34.509Z,1.00
2023-01-18T09:03:37.769Z,0.93
2023-01-18T09:04:42.257Z,1.07
2023-01-18T09:05:45.835Z,1.20
2023-01-18T09:06:53.300Z,1.60
2023-01-18T09:07:55.960Z,1.10
2023-01-18T09:08:59.485Z,1.43
2023-01-18T09:10:02.225Z,1.10
2023-01-18T09:11:05.044Z,1.00
2023-01-18T09:12:07.775Z,1.23
2023-01-18T09:13:11.053Z,1.20
2023-01-18T09:14:15.399Z,1.33
2023-01-18T09:15:18.377Z,1.10
2023-01-18T09:16:23.032Z,1.10
2023-01-18T09:17:26.916Z,1.60
2023-01-18T09:18:30.151Z,1.50
2023-01-18T09:19:33.008Z,1.30
2023-01-18T09:20:36.797Z,1.47
2023-01-18T09:21:40.183Z,1.27
2023-01-18T09:22:42.865Z,1.10
2023-01-18T09:23:45.692Z,1.00
2023-01-18T09:24:48.349Z,1.43
2023-01-18T09:26:02.468Z,1.63
2023-01-18T09:27:05.654Z,1.53
2023-01-18T09:28:07.432Z,1.10
2023-01-18T09:29:10.116Z,0.87
2023-01-18T09:30:12.681Z,1.30
2023-01-18T09:31:15.613Z,1.27
2023-01-18T09:32:19.899Z,1.40
2023-01-18T09:33:22.766Z,1.60
2023-01-18T09:34:24.517Z,2.57
2023-01-18T09:35:27.356Z,1.80
2023-01-18T09:36:30.822Z,1.60
2023-01-18T09:37:32.760Z,1.90
2023-01-18T09:38:36.802Z,1.43
2023-01-18T09:39:51.014Z,1.20
2023-01-18T09:40:54.975Z,1.33
2023-01-18T09:42:00.217Z,1.50
2023-01-18T09:43:02.012Z,1.30
2023-01-18T09:44:19.154Z,1.13
2023-01-18T09:45:30.336Z,1.23
2023-01-18T09:46:35.478Z,1.00
2023-01-18T09:47:44.733Z,1.50
2023-01-18T09:48:52.233Z,1.33
2023-01-18T09:49:56.725Z,1.33
2023-01-18T09:51:02.201Z,1.50
2023-01-18T09:52:23.721Z,1.40
2023-01-18T09:53:34.177Z,1.40
2023-01-18T09:54:42.996Z,1.50
2023-01-18T09:55:51.043Z,1.17
2023-01-18T09:57:01.452Z,1.30
2023-01-18T09:58:13.377Z,1.20
2023-01-18T09:59:22.065Z,1.00
2023-01-18T10:00:26.913Z,1.13
2023-01-18T10:01:33.181Z,1.50
2023-01-18T10:02:39.347Z,1.70
2023-01-18T10:03:49.386Z,1.13
2023-01-18T10:04:55.159Z,1.17
2023-01-18T10:06:09.408Z,1.30
2023-01-18T10:07:16.050Z,1.30
2023-01-18T10:08:23.724Z,1.10
2023-01-18T10:09:28.426Z,1.27
2023-01-18T10:10:35.972Z,1.27
2023-01-18T10:11:44.922Z,1.40
2023-01-18T10:12:52.866Z,1.33
2023-01-18T10:13:59.496Z,1.10
2023-01-18T10:15:06.056Z,1.20
2023-01-18T10:16:14.612Z,1.40
2023-01-18T10:17:22.769Z,1.20
2023-01-18T10:18:25.962Z,1.20
2023-01-18T10:19:30.834Z,1.20
2023-01-18T10:20:40.323Z,1.20
2023-01-18T10:21:48.811Z,1.50
2023-01-18T10:22:55.289Z,1.40
2023-01-18T10:24:10.282Z,1.40
2023-01-18T10:25:17.122Z,1.57
2023-01-18T10:26:21.804Z,1.40
2023-01-18T10:27:48.536Z,1.30
2023-01-18T10:28:56.339Z,1.43
2023-01-18T10:30:15.830Z,1.83
2023-01-18T10:31:27.479Z,1.17
2023-01-18T10:32:30.604Z,1.23
2023-01-18T10:33:37.505Z,1.40
2023-01-18T10:34:43.022Z,1.40
2023-01-18T10:35:48.087Z,1.47
2023-01-18T10:36:52.892Z,1.30
2023-01-18T10:37:58.908Z,1.50
2023-01-18T10:39:04.715Z,1.30
2023-01-18T10:40:10.335Z,1.40
2023-01-18T10:41:19.985Z,1.70
2023-01-18T10:42:24.759Z,1.40
2023-01-18T10:43:27.506Z,1.43
2023-01-18T10:44:31.599Z,1.30
2023-01-18T10:45:35.842Z,1.37
2023-01-18T10:46:38.916Z,1.20
2023-01-18T10:47:40.580Z,1.53
2023-01-18T10:48:49.705Z,1.40
2023-01-18T10:49:58.887Z,1.40
2023-01-18T10:51:02.862Z,1.33
2023-01-18T10:52:26.271Z,1.50
2023-01-18T10:53:32.484Z,1.03
2023-01-18T10:54:35.183Z,1.37
2023-01-18T10:55:37.885Z,1.30
2023-01-18T10:56:40.738Z,1.23
2023-01-18T10:57:45.766Z,1.23
2023-01-18T10:58:54.370Z,1.50
2023-01-18T10:59:57.585Z,1.40
2023-01-18T11:01:00.955Z,1.83
2023-01-18T11:02:05.108Z,1.20
2023-01-18T11:03:13.174Z,1.30
2023-01-18T11:04:21.639Z,1.10
2023-01-18T11:05:29.307Z,1.20
2023-01-18T11:06:32.044Z,1.67
2023-01-18T11:07:34.046Z,0.80
2023-01-18T11:08:36.897Z,1.03
2023-01-18T11:09:44.645Z,1.30
2023-01-18T11:10:46.580Z,1.10
2023-01-18T11:12:07.018Z,1.00
2023-01-18T11:13:25.446Z,1.27
2023-01-18T11:14:30.508Z,1.07
2023-01-18T11:15:32.455Z,1.50
2023-01-18T11:16:35.998Z,1.33
2023-01-18T11:17:37.784Z,1.30
2023-01-18T11:18:56.415Z,1.47
2023-01-18T11:20:08.286Z,1.20
2023-01-18T11:21:11.330Z,1.20
2023-01-18T11:22:14.300Z,1.20
2023-01-18T11:23:22.183Z,0.90
2023-01-18T11:24:28.245Z,1.30
2023-01-18T11:25:40.204Z,1.40
2023-01-18T11:26:52.641Z,1.10
2023-01-18T11:28:01.510Z,1.10
2023-01-18T11:29:06.417Z,1.17
2023-01-18T11:30:21.106Z,1.47
2023-01-18T11:31:25.683Z,1.10
2023-01-18T11:32:30.580Z,0.80
2023-01-18T11:33:32.391Z,1.03
2023-01-18T11:34:36.830Z,1.00
2023-01-18T11:35:41.294Z,1.10
2023-01-18T11:36:45.711Z,0.90
2023-01-18T11:37:47.612Z,1.20
2023-01-18T11:38:50.430Z,1.23
2023-01-18T11:39:52.193Z,1.17
2023-01-18T11:41:04.519Z,0.83
2023-01-18T11:42:24.089Z,1.00
2023-01-18T11:43:27.900Z,0.80
2023-01-18T11:44:34.292Z,0.87
2023-01-18T11:45:40.447Z,0.90
2023-01-18T11:46:43.912Z,0.77
2023-01-18T11:47:55.313Z,0.70
2023-01-18T11:49:02.751Z,0.80
2023-01-18T11:50:21.323Z,0.87
2023-01-18T11:51:32.946Z,0.90
2023-01-18T11:52:42.337Z,0.80
2023-01-18T11:53:49.775Z,0.67
2023-01-18T11:54:58.786Z,0.83
2023-01-18T11:56:06.478Z,0.80
2023-01-18T11:57:12.790Z,0.67
2023-01-18T11:58:26.867Z,0.60
2023-01-18T11:59:30.958Z,0.90
2023-01-18T12:00:42.957Z,1.08
2023-01-18T12:02:06.831Z,1.23
2023-01-18T12:03:26.355Z,1.10
2023-01-18T12:04:37.341Z,0.90
2023-01-18T12:05:45.955Z,1.25
2023-01-18T12:06:55.546Z,1.40
2023-01-18T12:08:10.730Z,0.95
2023-01-18T12:09:22.499Z,1.17
2023-01-18T12:10:28.959Z,0.93
2023-01-18T12:11:45.575Z,1.20
2023-01-18T12:13:03.605Z,1.10
2023-01-18T12:14:16.071Z,1.08
2023-01-18T12:15:41.877Z,1.00
2023-01-18T12:16:54.787Z,1.30
2023-01-18T12:18:14.187Z,1.30
2023-01-18T12:19:27.343Z,1.10
2023-01-18T12:20:34.311Z,1.13
2023-01-18T12:21:43.658Z,1.13
2023-01-18T12:23:11.872Z,1.20
2023-01-18T12:24:28.446Z,1.08
2023-01-18T12:26:12.504Z,1.30
2023-01-18T12:27:22.290Z,1.03
2023-01-18T12:28:33.120Z,1.37
2023-01-18T12:30:00.349Z,1.70
2023-01-18T12:31:13.323Z,1.42
2023-01-18T12:32:27.868Z,1.27
2023-01-18T12:33:43.740Z,1.10
2023-01-18T12:34:58.351Z,1.17
2023-01-18T12:36:13.357Z,1.57
2023-01-18T12:37:27.556Z,1.53
2023-01-18T12:38:33.191Z,1.30
2023-01-18T12:39:59.492Z,1.60
2023-01-18T12:41:17.588Z,1.53
2023-01-18T12:42:26.032Z,1.40
2023-01-18T12:43:37.866Z,1.30
2023-01-18T12:44:51.052Z,1.53
2023-01-18T12:45:58.709Z,1.17
2023-01-18T12:47:11.712Z,1.50
2023-01-18T12:48:18.731Z,1.50
2023-01-18T12:49:23.050Z,1.30
2023-01-18T12:50:29.099Z,1.30
2023-01-18T12:51:33.887Z,1.40
2023-01-18T12:52:46.690Z,1.30
2023-01-18T12:53:54.251Z,2.00
2023-01-18T12:54:58.673Z,1.80
2023-01-18T12:56:05.292Z,1.40
2023-01-18T12:57:07.933Z,1.50
2023-01-18T12:58:15.336Z,2.00
2023-01-18T12:59:20.846Z,1.70
2023-01-18T13:00:26.378Z,1.90
2023-01-18T13:01:31.797Z,1.97
2023-01-18T13:02:36.298Z,1.90
2023-01-18T13:03:42.526Z,1.50
2023-01-18T13:04:46.590Z,1.80
2023-01-18T13:05:53.055Z,2.00
2023-01-18T13:06:59.418Z,2.13
2023-01-18T13:08:09.201Z,1.80
2023-01-18T13:09:18.567Z,2.10
2023-01-18T13:10:23.981Z,2.00
2023-01-18T13:11:28.420Z,2.00
2023-01-18T13:12:31.758Z,2.03
2023-01-18T13:13:35.259Z,2.43
2023-01-18T13:14:41.915Z,2.23
2023-01-18T13:15:49.873Z,2.23
2023-01-18T13:16:59.449Z,2.60
2023-01-18T13:18:08.052Z,2.20
2023-01-18T13:19:13.103Z,2.10
2023-01-18T13:20:18.232Z,2.00
2023-01-18T13:21:26.518Z,2.70
2023-01-18T13:22:36.986Z,3.03
2023-01-18T13:23:50.361Z,1.93
2023-01-18T13:25:14.299Z,2.70
2023-01-18T13:26:24.463Z,2.10
2023-01-18T13:27:27.220Z,2.50
2023-01-18T13:28:30.155Z,2.23
2023-01-18T13:29:32.109Z,2.57
2023-01-18T13:30:47.331Z,2.90
2023-01-18T13:31:52.975Z,2.80
2023-01-18T13:32:56.227Z,2.27
2023-01-18T13:33:58.440Z,2.20
2023-01-18T13:35:19.572Z,2.77
2023-01-18T13:36:23.210Z,2.30
2023-01-18T13:37:44.587Z,2.83
2023-01-18T13:38:54.486Z,2.80
2023-01-18T13:39:56.541Z,2.70
2023-01-18T13:41:02.760Z,2.40
2023-01-18T13:42:19.332Z,2.60
2023-01-18T13:43:34.689Z,2.53
2023-01-18T13:44:43.951Z,2.20
2023-01-18T13:46:02.819Z,2.33
2023-01-18T13:47:59.300Z,2.17
2023-01-18T13:49:02.931Z,2.10
2023-01-18T13:50:47.431Z,2.07
2023-01-18T13:51:53.125Z,2.07
2023-01-18T13:53:17.635Z,2.23
2023-01-18T13:54:59.095Z,1.90
2023-01-18T13:56:25.750Z,2.33
2023-01-18T13:57:28.898Z,1.90
2023-01-18T13:58:32.684Z,1.63
2023-01-18T13:59:39.066Z,1.90
2023-01-18T14:00:48.490Z,2.47
2023-01-18T14:01:55.207Z,1.67
2023-01-18T14:03:02.985Z,2.23
2023-01-18T14:04:17.743Z,2.20
2023-01-18T14:05:25.700Z,2.33
2023-01-18T14:06:33.482Z,2.10
2023-01-18T14:07:43.197Z,2.20
2023-01-18T14:08:51.560Z,1.93
2023-01-18T14:09:54.506Z,1.73
2023-01-18T14:11:04.496Z,1.73
2023-01-18T14:12:07.261Z,1.80
2023-01-18T14:13:15.821Z,1.90
2023-01-18T14:14:34.382Z,1.93
2023-01-18T14:15:51.502Z,1.70
2023-01-18T14:16:57.000Z,1.63
2023-01-18T14:18:00.151Z,2.20
2023-01-18T14:19:09.210Z,1.93
2023-01-18T14:20:38.530Z,1.77
2023-01-18T14:21:53.902Z,2.13
2023-01-18T14:23:08.317Z,1.70
2023-01-18T14:24:20.264Z,1.73
2023-01-18T14:25:36.539Z,1.97
2023-01-18T14:26:41.440Z,2.17
2023-01-18T14:27:47.167Z,2.47
2023-01-18T14:28:52.147Z,2.27
2023-01-18T14:30:00.248Z,2.33
2023-01-18T14:31:04.234Z,2.23
2023-01-18T14:32:13.891Z,2.00
2023-01-18T14:33:19.522Z,2.20
2023-01-18T14:34:41.123Z,2.13
2023-01-18T14:35:52.441Z,2.50
2023-01-18T14:36:57.719Z,2.90
2023-01-18T14:38:17.400Z,2.33
2023-01-18T14:39:21.700Z,2.10
2023-01-18T14:40:26.465Z,2.30
2023-01-18T14:41:30.104Z,2.10